KAVP/AVP METAR and TAF weather

Enter ICAO airport designator
Station Type Date Time Source
KAVP METAR 2019/12/08 13:54 UTC NOAA

KAVP 081354Z 04004KT 10SM CLR M04/M10 A3044 RMK AO2 SLP320 T10441100


Station Type Date Time Source
KAVP Decoded METAR 2019/12/08 13:54 UTC NOAA

WILKES-BARRE/SCRANTON INTERNATIONAL , PA, United States (KAVP) 41-20N 75-44W 291M
Dec 08, 2019 - 08:54 AM EST / 2019.12.08 1354 UTC
Wind: from the NE (040 degrees) at 5 MPH (4 KT):0
Visibility: 10 mile(s):0
Sky conditions: clear
Temperature: 24.1 F (-4.4 C)
Windchill: 17 F (-8 C):1
Dew Point: 14.0 F (-10.0 C)
Relative Humidity: 64%
Pressure (altimeter): 30.44 in. Hg (1030 hPa)
ob: KAVP 081354Z 04004KT 10SM CLR M04/M10 A3044 RMK AO2 SLP320 T10441100
cycle: 14

Station Type Date Time Source
KAVP TAF 2019/12/08 12:27 UTC NOAA

TAF KAVP 081124Z 0812/0912 10006KT P6SM SKC
FM081400 18005KT P6SM SKC
FM090300 20008KT P6SM BKN090
FM091100 20005KT P6SM BKN035

Example: see airport list